createdAt,value
2023-04-10T00:00:20.096Z,3.39
2023-04-10T00:02:48.777Z,3.46
2023-04-10T00:05:18.300Z,3.45
2023-04-10T00:07:47.018Z,3.36
2023-04-10T00:10:16.172Z,3.41
2023-04-10T00:12:45.064Z,3.34
2023-04-10T00:15:15.191Z,3.32
2023-04-10T00:17:44.128Z,3.30
2023-04-10T00:20:13.413Z,3.25
2023-04-10T00:22:42.035Z,3.20
2023-04-10T00:25:11.530Z,3.19
2023-04-10T00:27:39.840Z,3.21
2023-04-10T00:30:09.769Z,3.23
2023-04-10T00:32:42.289Z,3.17
2023-04-10T00:35:11.373Z,3.17
2023-04-10T00:37:40.078Z,3.12
2023-04-10T00:40:10.520Z,3.09
2023-04-10T00:42:38.897Z,3.02
2023-04-10T00:45:08.948Z,3.01
2023-04-10T00:47:41.279Z,2.87
2023-04-10T00:50:10.280Z,2.91
2023-04-10T00:52:39.397Z,2.89
2023-04-10T00:55:09.142Z,2.80
2023-04-10T00:57:37.802Z,2.74
2023-04-10T01:00:08.733Z,2.69
2023-04-10T01:02:37.182Z,2.64
2023-04-10T01:05:09.479Z,2.56
2023-04-10T01:07:52.207Z,2.52
2023-04-10T01:10:31.107Z,2.49
2023-04-10T01:13:09.721Z,2.52
2023-04-10T01:15:44.914Z,2.52
2023-04-10T01:18:21.338Z,2.53
2023-04-10T01:20:51.205Z,2.48
2023-04-10T01:23:44.303Z,2.40
2023-04-10T01:26:17.600Z,2.30
2023-04-10T01:29:00.334Z,2.26
2023-04-10T01:31:37.085Z,2.35
2023-04-10T01:34:09.539Z,2.36
2023-04-10T01:36:45.906Z,2.41
2023-04-10T01:39:14.892Z,2.31
2023-04-10T01:41:46.269Z,2.26
2023-04-10T01:44:19.639Z,2.34
2023-04-10T01:46:51.139Z,2.26
2023-04-10T01:49:20.955Z,2.22
2023-04-10T01:51:49.881Z,2.18
2023-04-10T01:54:19.148Z,2.10
2023-04-10T01:56:47.772Z,2.08
2023-04-10T01:59:18.223Z,2.05
2023-04-10T02:01:46.588Z,2.03
2023-04-10T02:04:15.147Z,2.11
2023-04-10T02:06:51.484Z,2.10
2023-04-10T02:09:27.595Z,2.03
2023-04-10T02:12:00.678Z,2.01
2023-04-10T02:14:33.995Z,2.01
2023-04-10T02:17:04.084Z,2.02
2023-04-10T02:19:34.874Z,2.01
2023-04-10T02:22:06.258Z,1.99
2023-04-10T02:24:36.268Z,1.96
2023-04-10T02:27:05.220Z,2.00
2023-04-10T02:29:35.125Z,2.08
2023-04-10T02:32:03.603Z,2.16
2023-04-10T02:34:31.922Z,2.18
2023-04-10T02:37:00.203Z,2.05
2023-04-10T02:39:28.422Z,2.00
2023-04-10T02:41:56.917Z,1.92
2023-04-10T02:44:25.441Z,1.85
2023-04-10T02:46:55.236Z,1.74
2023-04-10T02:49:23.336Z,1.63
2023-04-10T02:51:51.601Z,1.70
2023-04-10T02:54:19.991Z,1.93
2023-04-10T02:56:48.620Z,1.77
2023-04-10T02:59:16.953Z,1.85
2023-04-10T03:01:45.535Z,1.75
2023-04-10T03:04:15.723Z,1.70
2023-04-10T03:06:44.149Z,1.70
2023-04-10T03:09:12.226Z,1.59
2023-04-10T03:11:40.554Z,1.58
2023-04-10T03:14:10.408Z,1.51
2023-04-10T03:16:38.595Z,1.43
2023-04-10T03:19:07.998Z,1.34
2023-04-10T03:21:37.884Z,1.38
2023-04-10T03:24:06.447Z,1.39
2023-04-10T03:26:34.709Z,1.34
2023-04-10T03:29:02.964Z,1.30
2023-04-10T03:31:31.631Z,1.26
2023-04-10T03:34:00.004Z,1.25
2023-04-10T03:36:28.942Z,1.25
2023-04-10T03:38:58.959Z,1.18
2023-04-10T03:41:27.357Z,1.13
2023-04-10T03:43:56.056Z,1.05
2023-04-10T03:46:24.695Z,0.98
2023-04-10T03:48:54.401Z,0.92
2023-04-10T03:51:24.902Z,0.86
2023-04-10T03:53:53.479Z,0.76
2023-04-10T03:56:23.921Z,0.76
2023-04-10T03:58:51.900Z,0.85
2023-04-10T04:01:20.719Z,0.76
2023-04-10T04:03:49.342Z,0.58
2023-04-10T04:06:17.467Z,0.64
2023-04-10T04:08:45.955Z,0.59
2023-04-10T04:11:14.111Z,0.60
2023-04-10T04:13:43.747Z,0.54
2023-04-10T04:16:12.335Z,0.44
2023-04-10T04:18:40.524Z,0.42
2023-04-10T04:21:09.778Z,0.30
2023-04-10T04:23:37.864Z,0.25
2023-04-10T04:26:06.982Z,0.39
2023-04-10T04:28:35.136Z,0.45
2023-04-10T04:31:04.750Z,0.38
2023-04-10T04:33:32.863Z,0.38
2023-04-10T04:36:01.059Z,0.33
2023-04-10T04:38:29.178Z,0.33
2023-04-10T04:40:57.264Z,0.31
2023-04-10T04:43:25.465Z,0.31
2023-04-10T04:45:53.696Z,0.32
2023-04-10T04:48:23.164Z,0.30
2023-04-10T04:50:51.427Z,0.38
2023-04-10T04:53:19.487Z,0.44
2023-04-10T04:55:47.519Z,0.49
2023-04-10T04:58:15.735Z,0.56
2023-04-10T05:00:43.744Z,0.59
2023-04-10T05:03:12.420Z,0.63
2023-04-10T05:05:42.108Z,0.68
2023-04-10T05:08:10.758Z,0.73
2023-04-10T05:10:39.106Z,0.86
2023-04-10T05:13:07.284Z,0.96
2023-04-10T05:15:35.347Z,0.99
2023-04-10T05:18:03.912Z,0.97
2023-04-10T05:20:32.512Z,0.91
2023-04-10T05:23:02.133Z,1.00
2023-04-10T05:25:30.658Z,1.11
2023-04-10T05:27:58.734Z,1.16
2023-04-10T05:30:26.797Z,1.29
2023-04-10T05:32:54.914Z,1.45
2023-04-10T05:35:23.070Z,1.48
2023-04-10T05:37:51.508Z,1.51
2023-04-10T05:40:21.693Z,1.53
2023-04-10T05:42:50.115Z,1.53
2023-04-10T05:45:18.536Z,1.56
2023-04-10T05:47:46.846Z,1.58
2023-04-10T05:50:14.906Z,1.61
2023-04-10T05:52:42.979Z,1.71
2023-04-10T05:55:11.512Z,1.87
2023-04-10T05:57:41.348Z,2.05
2023-04-10T06:00:10.693Z,2.12
2023-04-10T06:02:39.267Z,2.22
2023-04-10T06:05:08.207Z,2.26
2023-04-10T06:07:36.344Z,2.38
2023-04-10T06:10:04.727Z,2.54
2023-04-10T06:12:33.200Z,2.70
2023-04-10T06:15:02.719Z,2.80
2023-04-10T06:17:31.038Z,2.95
2023-04-10T06:20:01.125Z,3.09
2023-04-10T06:22:29.277Z,3.40
2023-04-10T06:25:00.527Z,3.61
2023-04-10T06:27:28.838Z,3.81
2023-04-10T06:29:57.740Z,3.91
2023-04-10T06:32:27.475Z,4.14
2023-04-10T06:34:56.004Z,4.24
2023-04-10T06:37:29.296Z,4.42
2023-04-10T06:40:04.044Z,4.56
2023-04-10T06:42:32.229Z,4.74
2023-04-10T06:45:00.481Z,4.98
2023-04-10T06:47:30.056Z,5.13
2023-04-10T06:49:58.395Z,5.34
2023-04-10T06:52:26.685Z,5.48
2023-04-10T06:54:55.141Z,5.74
2023-04-10T06:57:23.321Z,5.97
2023-04-10T06:59:51.328Z,6.05
2023-04-10T07:02:19.616Z,6.18
2023-04-10T07:04:49.440Z,6.35
2023-04-10T07:07:19.535Z,6.51
2023-04-10T07:09:47.939Z,6.68
2023-04-10T07:12:16.632Z,6.80
2023-04-10T07:14:44.792Z,6.91
2023-04-10T07:17:12.904Z,7.06
2023-04-10T07:19:41.132Z,7.26
2023-04-10T07:22:11.672Z,7.36
2023-04-10T07:24:39.789Z,7.36
2023-04-10T07:27:07.929Z,7.44
2023-04-10T07:29:36.138Z,7.67
2023-04-10T07:32:04.307Z,7.70
2023-04-10T07:34:33.516Z,7.78
2023-04-10T07:37:02.084Z,7.83
2023-04-10T07:39:31.705Z,7.93
2023-04-10T07:41:59.873Z,7.94
2023-04-10T07:44:29.150Z,8.06
2023-04-10T07:46:57.846Z,8.12
2023-04-10T07:49:26.062Z,8.24
2023-04-10T07:51:54.545Z,8.29
2023-04-10T07:54:22.743Z,8.44
2023-04-10T07:56:53.663Z,8.49
2023-04-10T07:59:22.167Z,8.61
2023-04-10T08:01:50.835Z,8.78
2023-04-10T08:04:19.478Z,8.85
2023-04-10T08:06:49.640Z,8.82
2023-04-10T08:09:18.356Z,8.97
2023-04-10T08:11:46.446Z,9.16
2023-04-10T08:14:18.514Z,9.18
2023-04-10T08:16:47.121Z,9.24
2023-04-10T08:19:15.828Z,9.36
2023-04-10T08:21:44.135Z,9.59
2023-04-10T08:24:12.398Z,9.57
2023-04-10T08:26:41.216Z,9.60
2023-04-10T08:29:09.580Z,9.75
2023-04-10T08:31:39.390Z,9.83
2023-04-10T08:34:08.016Z,9.87
2023-04-10T08:36:36.422Z,9.82
2023-04-10T08:39:05.313Z,9.89
2023-04-10T08:41:33.794Z,9.94
2023-04-10T08:44:02.249Z,9.73
2023-04-10T08:46:31.890Z,9.83
2023-04-10T08:49:04.166Z,9.96
2023-04-10T08:51:37.673Z,10.12
2023-04-10T08:54:09.487Z,10.29
2023-04-10T08:56:42.501Z,10.38
2023-04-10T08:59:11.174Z,10.38
2023-04-10T09:01:42.472Z,10.52
2023-04-10T09:04:14.180Z,10.71
2023-04-10T09:06:43.304Z,10.76
2023-04-10T09:09:11.827Z,10.73
2023-04-10T09:12:01.553Z,10.81
2023-04-10T09:14:32.005Z,10.77
2023-04-10T09:17:18.051Z,10.84
2023-04-10T09:19:49.557Z,10.88
2023-04-10T09:22:18.178Z,10.97
2023-04-10T09:24:48.959Z,11.02
2023-04-10T09:27:31.770Z,10.90
2023-04-10T09:30:00.848Z,11.02
2023-04-10T09:32:41.662Z,11.04
2023-04-10T09:35:13.486Z,11.15
2023-04-10T09:37:43.071Z,11.18
2023-04-10T09:40:22.277Z,11.35
2023-04-10T09:42:51.237Z,11.42
2023-04-10T09:45:20.955Z,11.47
2023-04-10T09:48:04.794Z,11.61
2023-04-10T09:50:40.267Z,11.51
2023-04-10T09:53:09.441Z,11.58
2023-04-10T09:55:38.241Z,11.66
2023-04-10T09:58:06.935Z,11.49
2023-04-10T10:00:41.227Z,11.75
2023-04-10T10:03:12.280Z,11.92
2023-04-10T10:05:45.077Z,11.93
2023-04-10T10:08:15.154Z,11.90
2023-04-10T10:10:47.220Z,11.77
2023-04-10T10:13:19.074Z,11.87
2023-04-10T10:15:53.691Z,12.02
2023-04-10T10:18:28.740Z,12.12
2023-04-10T10:21:01.056Z,11.83
2023-04-10T10:23:30.201Z,11.97
2023-04-10T10:26:03.300Z,12.24
2023-04-10T10:28:35.706Z,12.45
2023-04-10T10:31:05.450Z,12.59
2023-04-10T10:33:37.141Z,12.68
2023-04-10T10:36:11.074Z,12.75
2023-04-10T10:38:44.590Z,12.75
2023-04-10T10:41:19.539Z,12.64
2023-04-10T10:43:56.362Z,12.61
2023-04-10T10:46:33.781Z,12.68
2023-04-10T10:49:02.726Z,12.68
2023-04-10T10:51:49.318Z,12.43
2023-04-10T10:54:30.752Z,12.64
2023-04-10T10:56:59.231Z,12.68
2023-04-10T10:59:56.384Z,12.53
2023-04-10T11:02:25.137Z,12.59
2023-04-10T11:04:53.629Z,12.65
2023-04-10T11:07:23.239Z,12.83
2023-04-10T11:09:53.750Z,13.12
2023-04-10T11:12:24.469Z,12.56
2023-04-10T11:15:01.030Z,12.46
2023-04-10T11:17:49.411Z,12.29
2023-04-10T11:20:18.700Z,12.72
2023-04-10T11:23:11.691Z,12.62
2023-04-10T11:25:51.558Z,12.99
2023-04-10T11:28:39.121Z,13.25
2023-04-10T11:31:19.982Z,13.36
2023-04-10T11:33:49.727Z,13.52
2023-04-10T11:36:18.977Z,13.42
2023-04-10T11:38:59.643Z,13.14
2023-04-10T11:41:30.691Z,13.22
2023-04-10T11:43:59.649Z,13.04
2023-04-10T11:46:28.408Z,12.94
2023-04-10T11:48:59.287Z,12.82
2023-04-10T11:51:31.872Z,12.79
2023-04-10T11:54:09.228Z,12.96
2023-04-10T11:56:38.620Z,13.16
2023-04-10T11:59:11.117Z,13.50
2023-04-10T12:01:42.780Z,13.28
2023-04-10T12:04:18.419Z,13.32
2023-04-10T12:06:48.856Z,13.34
2023-04-10T12:09:22.397Z,13.62
2023-04-10T12:11:53.070Z,13.31
2023-04-10T12:14:22.907Z,13.49
2023-04-10T12:16:51.637Z,13.59
2023-04-10T12:19:20.876Z,13.91
2023-04-10T12:21:49.882Z,14.03
2023-04-10T12:24:44.868Z,13.95
2023-04-10T12:27:20.416Z,14.14
2023-04-10T12:29:50.423Z,14.23
2023-04-10T12:32:19.366Z,14.14
2023-04-10T12:34:52.245Z,14.31
2023-04-10T12:37:20.733Z,14.13
2023-04-10T12:39:50.734Z,13.87
2023-04-10T12:42:21.162Z,14.08
2023-04-10T12:44:54.518Z,13.93
2023-04-10T12:47:23.870Z,13.60
2023-04-10T12:50:07.726Z,13.77
2023-04-10T12:52:36.781Z,14.23
2023-04-10T12:55:16.322Z,14.40
2023-04-10T12:57:47.062Z,14.46
2023-04-10T13:00:17.650Z,13.90
2023-04-10T13:02:47.289Z,13.74
2023-04-10T13:05:16.662Z,13.80
2023-04-10T13:07:45.120Z,13.81
2023-04-10T13:10:20.499Z,13.95
2023-04-10T13:12:49.695Z,14.10
2023-04-10T13:15:18.539Z,14.25
2023-04-10T13:17:47.075Z,14.38
2023-04-10T13:20:15.848Z,14.27
2023-04-10T13:22:44.415Z,14.13
2023-04-10T13:25:12.914Z,14.28
2023-04-10T13:27:42.680Z,14.30
2023-04-10T13:30:11.609Z,14.54
2023-04-10T13:32:40.213Z,14.32
2023-04-10T13:35:09.116Z,14.42
2023-04-10T13:37:37.711Z,14.34
2023-04-10T13:40:07.189Z,14.58
2023-04-10T13:42:37.189Z,14.71
2023-04-10T13:45:13.659Z,14.81
2023-04-10T13:47:42.206Z,14.99
2023-04-10T13:50:11.390Z,14.96
2023-04-10T13:52:39.660Z,14.94
2023-04-10T13:55:09.344Z,15.02
2023-04-10T13:57:37.765Z,15.10
2023-04-10T14:00:07.613Z,14.73
2023-04-10T14:02:38.135Z,14.48
2023-04-10T14:05:07.898Z,14.57
2023-04-10T14:07:43.890Z,14.86
2023-04-10T14:10:15.955Z,14.85
2023-04-10T14:12:45.045Z,14.53
2023-04-10T14:15:14.247Z,14.72
2023-04-10T14:17:46.175Z,14.81
2023-04-10T14:20:15.108Z,14.92
2023-04-10T14:22:43.924Z,14.89
2023-04-10T14:25:16.074Z,14.71
2023-04-10T14:27:45.871Z,14.76
2023-04-10T14:30:16.988Z,14.77
2023-04-10T14:32:46.955Z,14.61
2023-04-10T14:35:15.627Z,14.61
2023-04-10T14:37:44.739Z,14.65
2023-04-10T14:40:13.949Z,14.63
2023-04-10T14:42:42.450Z,14.61
2023-04-10T14:45:12.805Z,14.36
2023-04-10T14:47:42.100Z,14.18
2023-04-10T14:50:13.025Z,14.03
2023-04-10T14:52:41.700Z,14.00
2023-04-10T14:55:11.220Z,14.14
2023-04-10T14:57:39.658Z,14.31
2023-04-10T15:00:09.770Z,14.39
2023-04-10T15:02:38.520Z,14.38
2023-04-10T15:05:07.188Z,14.52
2023-04-10T15:07:37.096Z,14.73
2023-04-10T15:10:06.506Z,14.49
2023-04-10T15:12:35.738Z,14.29
2023-04-10T15:15:04.247Z,14.68
2023-04-10T15:17:32.974Z,14.83
2023-04-10T15:20:05.079Z,14.49
2023-04-10T15:22:34.282Z,14.44
2023-04-10T15:25:04.650Z,14.26
2023-04-10T15:27:33.489Z,14.49
2023-04-10T15:30:01.841Z,14.56
2023-04-10T15:32:31.964Z,14.51
2023-04-10T15:35:01.112Z,14.48
2023-04-10T15:37:29.277Z,14.35
2023-04-10T15:39:58.644Z,14.32
2023-04-10T15:42:28.498Z,14.27
2023-04-10T15:44:57.050Z,14.33
2023-04-10T15:47:25.389Z,14.25
2023-04-10T15:49:54.060Z,14.13
2023-04-10T15:52:22.325Z,14.18
2023-04-10T15:54:51.464Z,14.20
2023-04-10T15:57:20.234Z,14.21
2023-04-10T15:59:53.339Z,14.12
2023-04-10T16:02:21.590Z,14.17
2023-04-10T16:04:50.295Z,14.04
2023-04-10T16:07:18.645Z,13.95
2023-04-10T16:09:47.092Z,14.06
2023-04-10T16:12:15.494Z,13.94
2023-04-10T16:14:44.026Z,13.89
2023-04-10T16:17:14.911Z,13.89
2023-04-10T16:19:43.128Z,13.66
2023-04-10T16:22:11.311Z,13.67
2023-04-10T16:24:39.658Z,13.74
2023-04-10T16:27:09.040Z,13.72
2023-04-10T16:29:37.679Z,13.51
2023-04-10T16:32:06.550Z,13.42
2023-04-10T16:34:36.268Z,13.34
2023-04-10T16:37:05.070Z,13.23
2023-04-10T16:39:33.311Z,12.99
2023-04-10T16:42:03.566Z,13.04
2023-04-10T16:44:32.385Z,13.03
2023-04-10T16:47:01.248Z,12.96
2023-04-10T16:49:31.304Z,12.81
2023-04-10T16:52:01.149Z,12.67
2023-04-10T16:54:29.469Z,12.59
2023-04-10T16:56:57.744Z,12.47
2023-04-10T16:59:26.785Z,12.48
2023-04-10T17:01:55.276Z,12.42
2023-04-10T17:04:24.658Z,12.32
2023-04-10T17:06:53.795Z,12.45
2023-04-10T17:09:24.026Z,12.48
2023-04-10T17:11:53.975Z,12.46
2023-04-10T17:14:22.232Z,12.37
2023-04-10T17:16:50.416Z,12.30
2023-04-10T17:19:18.820Z,12.13
2023-04-10T17:21:47.107Z,12.14
2023-04-10T17:24:15.673Z,12.05
2023-04-10T17:26:45.655Z,11.96
2023-04-10T17:29:13.810Z,11.83
2023-04-10T17:31:42.509Z,11.77
2023-04-10T17:34:10.807Z,11.66
2023-04-10T17:36:38.902Z,11.59
2023-04-10T17:39:07.231Z,11.53
2023-04-10T17:41:35.407Z,11.43
2023-04-10T17:44:05.818Z,11.42
2023-04-10T17:46:34.270Z,11.42
2023-04-10T17:49:03.295Z,11.27
2023-04-10T17:51:34.093Z,11.28
2023-04-10T17:54:02.739Z,11.18
2023-04-10T17:56:31.723Z,11.17
2023-04-10T17:59:00.642Z,11.10
2023-04-10T18:01:31.389Z,10.99
2023-04-10T18:04:00.450Z,10.96
2023-04-10T18:06:28.859Z,10.96
2023-04-10T18:08:58.034Z,10.90
2023-04-10T18:11:26.537Z,10.80
2023-04-10T18:13:54.714Z,10.83
2023-04-10T18:16:23.292Z,10.69
2023-04-10T18:18:54.268Z,10.77
2023-04-10T18:21:23.150Z,10.66
2023-04-10T18:23:52.658Z,10.55
2023-04-10T18:26:21.355Z,10.50
2023-04-10T18:28:49.691Z,10.45
2023-04-10T18:31:19.209Z,10.51
2023-04-10T18:33:56.267Z,10.42
2023-04-10T18:36:32.088Z,10.31
2023-04-10T18:39:00.373Z,10.40
2023-04-10T18:41:28.648Z,10.35
2023-04-10T18:44:04.951Z,10.29
2023-04-10T18:46:34.884Z,10.25
2023-04-10T18:49:03.754Z,10.38
2023-04-10T18:51:35.437Z,10.34
2023-04-10T18:54:03.877Z,10.27
2023-04-10T18:56:32.248Z,10.24
2023-04-10T18:59:00.929Z,10.20
2023-04-10T19:01:29.522Z,10.08
2023-04-10T19:03:58.753Z,10.25
2023-04-10T19:06:28.174Z,10.20
2023-04-10T19:08:58.054Z,10.28
2023-04-10T19:11:27.482Z,10.21
2023-04-10T19:13:57.175Z,10.11
2023-04-10T19:16:26.135Z,10.08
2023-04-10T19:18:55.474Z,10.06
2023-04-10T19:21:23.926Z,10.02
2023-04-10T19:23:52.404Z,9.96
2023-04-10T19:26:22.827Z,9.92
2023-04-10T19:28:50.983Z,9.80
2023-04-10T19:31:19.822Z,9.69
2023-04-10T19:33:48.017Z,9.75
2023-04-10T19:36:16.974Z,9.69
2023-04-10T19:38:49.962Z,9.66
2023-04-10T19:41:18.860Z,9.54
2023-04-10T19:43:48.768Z,9.70
2023-04-10T19:46:18.181Z,9.63
2023-04-10T19:48:46.954Z,9.61
2023-04-10T19:51:15.636Z,9.55
2023-04-10T19:53:44.188Z,9.44
2023-04-10T19:56:12.607Z,9.51
2023-04-10T19:58:41.596Z,9.40
2023-04-10T20:01:12.444Z,9.29
2023-04-10T20:03:41.076Z,9.18
2023-04-10T20:06:10.416Z,9.14
2023-04-10T20:08:38.963Z,9.20
2023-04-10T20:11:07.649Z,9.29
2023-04-10T20:13:35.740Z,9.24
2023-04-10T20:16:04.404Z,9.21
2023-04-10T20:18:35.181Z,9.28
2023-04-10T20:21:04.689Z,9.19
2023-04-10T20:23:32.934Z,9.22
2023-04-10T20:26:01.404Z,9.13
2023-04-10T20:28:30.287Z,9.09
2023-04-10T20:30:59.223Z,9.07
2023-04-10T20:33:27.693Z,8.98
2023-04-10T20:35:57.857Z,9.01
2023-04-10T20:38:26.077Z,9.09
2023-04-10T20:40:54.452Z,9.00
2023-04-10T20:43:22.944Z,8.93
2023-04-10T20:45:51.248Z,8.95
2023-04-10T20:48:19.545Z,8.93
2023-04-10T20:50:49.445Z,8.93
2023-04-10T20:53:19.236Z,8.89
2023-04-10T20:55:47.774Z,8.87
2023-04-10T20:58:16.464Z,8.86
2023-04-10T21:00:45.228Z,8.83
2023-04-10T21:03:13.998Z,8.82
2023-04-10T21:05:42.864Z,8.81
2023-04-10T21:08:11.805Z,8.83
2023-04-10T21:10:44.312Z,8.82
2023-04-10T21:13:15.054Z,8.83
2023-04-10T21:15:44.188Z,8.84
2023-04-10T21:18:13.000Z,8.78
2023-04-10T21:20:41.386Z,8.78
2023-04-10T21:23:09.626Z,8.78
2023-04-10T21:25:38.536Z,8.78
2023-04-10T21:28:08.803Z,8.74
2023-04-10T21:30:37.050Z,8.75
2023-04-10T21:33:05.904Z,8.76
2023-04-10T21:35:34.558Z,8.77
2023-04-10T21:38:03.487Z,8.76
2023-04-10T21:40:34.646Z,8.72
2023-04-10T21:43:03.693Z,8.69
2023-04-10T21:45:34.814Z,8.68
2023-04-10T21:48:03.311Z,8.63
2023-04-10T21:50:31.513Z,8.68
2023-04-10T21:53:00.743Z,8.66
2023-04-10T21:55:29.317Z,8.63
2023-04-10T21:57:58.680Z,8.61
2023-04-10T22:00:28.751Z,8.66
2023-04-10T22:02:58.895Z,8.66
2023-04-10T22:05:27.872Z,8.68
2023-04-10T22:07:56.677Z,8.80
2023-04-10T22:10:24.921Z,8.76
2023-04-10T22:12:53.352Z,8.75
2023-04-10T22:15:21.630Z,8.70
2023-04-10T22:17:49.890Z,8.72
2023-04-10T22:20:19.588Z,8.78
2023-04-10T22:22:47.928Z,8.69
2023-04-10T22:25:16.503Z,8.79
2023-04-10T22:27:45.673Z,8.83
2023-04-10T22:30:14.490Z,8.73
2023-04-10T22:32:42.687Z,8.75
2023-04-10T22:35:11.005Z,8.74
2023-04-10T22:37:40.531Z,8.74
2023-04-10T22:40:10.073Z,8.80
2023-04-10T22:42:38.423Z,8.82
2023-04-10T22:45:07.879Z,8.78
2023-04-10T22:47:36.203Z,8.69
2023-04-10T22:50:04.591Z,8.81
2023-04-10T22:52:32.678Z,8.76
2023-04-10T22:55:03.763Z,8.74
2023-04-10T22:57:31.942Z,8.79
2023-04-10T23:00:01.347Z,8.71
2023-04-10T23:02:31.554Z,8.74
2023-04-10T23:04:59.738Z,8.73
2023-04-10T23:07:28.056Z,8.58
2023-04-10T23:09:56.292Z,8.67
2023-04-10T23:12:27.456Z,8.70
2023-04-10T23:14:55.911Z,8.69
2023-04-10T23:17:24.928Z,8.69
2023-04-10T23:19:53.105Z,8.71
2023-04-10T23:22:21.397Z,8.69
2023-04-10T23:24:55.094Z,8.63
2023-04-10T23:27:24.292Z,8.75
2023-04-10T23:29:54.591Z,8.78
2023-04-10T23:32:22.885Z,8.77
2023-04-10T23:34:51.354Z,8.74
2023-04-10T23:37:19.644Z,8.75
2023-04-10T23:39:47.876Z,8.77
2023-04-10T23:42:16.027Z,8.78
2023-04-10T23:44:44.361Z,8.83
2023-04-10T23:47:14.190Z,8.81
2023-04-10T23:49:42.565Z,8.76
2023-04-10T23:52:11.285Z,8.73
2023-04-10T23:54:40.066Z,8.76
2023-04-10T23:57:08.412Z,8.77
2023-04-10T23:59:37.147Z,8.79
